Time;durP1;ratioP1;P1;durP2;ratioP2;P2;SDS_P1;SDS_P2;PMS_P1;PMS_P2;Temp;Humidity;BMP_temperature;BMP_pressure;BME280_temperature;BME280_humidity;BME280_pressure;Samples;Min_cycle;Max_cycle;Signal;HPM_P1;HPM_P2
2021/03/10 00:00:46;;;;;;;64.17;42.03;;;;;;;;;;2082525;28;20177;-55
2021/03/10 00:01:46;;;;;;;64.00;42.17;;;;;;;;;;2083110;28;20616;-56
2021/03/10 00:02:46;;;;;;;63.53;42.53;;;;;;;;;;2073173;28;20183;-58
2021/03/10 00:03:47;;;;;;;65.13;44.37;;;;;;;;;;2073871;28;20182;-57
2021/03/10 00:04:47;;;;;;;64.00;42.37;;;;;;;;;;2074232;28;20650;-57
2021/03/10 00:05:47;;;;;;;62.97;41.90;;;;;;;;;;2073893;28;20220;-57
2021/03/10 00:06:48;;;;;;;65.67;43.13;;;;;;;;;;2079112;28;20188;-56
2021/03/10 00:07:48;;;;;;;64.87;43.50;;;;;;;;;;2082187;28;20215;-55
2021/03/10 00:08:49;;;;;;;69.50;43.63;;;;;;;;;;2071364;28;20302;-55
2021/03/10 00:09:49;;;;;;;66.23;45.30;;;;;;;;;;2070891;28;20180;-54
2021/03/10 00:10:49;;;;;;;64.90;43.10;;;;;;;;;;2080572;28;20172;-54
2021/03/10 00:11:50;;;;;;;72.23;45.63;;;;;;;;;;2081386;28;20181;-59
2021/03/10 00:12:50;;;;;;;66.50;43.27;;;;;;;;;;2082088;28;20182;-60
2021/03/10 00:13:50;;;;;;;66.60;44.23;;;;;;;;;;2083640;28;20200;-57
2021/03/10 00:14:50;;;;;;;69.77;44.83;;;;;;;;;;2081671;28;20274;-60
2021/03/10 00:15:51;;;;;;;72.33;44.30;;;;;;;;;;2078864;28;20307;-56
2021/03/10 00:16:51;;;;;;;69.10;44.37;;;;;;;;;;2080454;28;20168;-59
2021/03/10 00:17:51;;;;;;;67.13;43.50;;;;;;;;;;2079328;28;20574;-56
2021/03/10 00:18:52;;;;;;;68.83;43.93;;;;;;;;;;2082130;28;20176;-56
2021/03/10 00:19:52;;;;;;;66.23;43.27;;;;;;;;;;2073515;28;20610;-56
2021/03/10 00:20:52;;;;;;;67.80;44.07;;;;;;;;;;2073099;28;20169;-60
2021/03/10 00:21:52;;;;;;;65.70;42.93;;;;;;;;;;2070017;28;20185;-56
2021/03/10 00:22:52;;;;;;;68.33;43.60;;;;;;;;;;2073737;28;20231;-58
2021/03/10 00:23:53;;;;;;;69.47;44.67;;;;;;;;;;2079116;28;20266;-56
2021/03/10 00:24:53;;;;;;;68.27;43.07;;;;;;;;;;2075727;28;20172;-54
2021/03/10 00:25:53;;;;;;;68.43;43.77;;;;;;;;;;2089554;28;20555;-54
2021/03/10 00:26:53;;;;;;;67.27;42.30;;;;;;;;;;2071155;28;20181;-53
2021/03/10 00:27:53;;;;;;;65.80;41.93;;;;;;;;;;2072900;28;20189;-54
2021/03/10 00:28:54;;;;;;;64.63;42.33;;;;;;;;;;2092147;28;20210;-59
2021/03/10 00:29:56;;;;;;;61.33;40.93;;;;;;;;;;2089212;28;20176;-58
2021/03/10 00:30:56;;;;;;;59.67;39.17;;;;;;;;;;2089589;28;20195;-58
2021/03/10 00:31:56;;;;;;;61.20;40.17;;;;;;;;;;2088696;28;20176;-59
2021/03/10 00:32:57;;;;;;;58.53;38.57;;;;;;;;;;2071905;28;20204;-59
2021/03/10 00:33:57;;;;;;;56.83;39.07;;;;;;;;;;2071689;28;20204;-59
2021/03/10 00:34:59;;;;;;;60.87;41.30;;;;;;;;;;2088889;28;20239;-58
2021/03/10 00:35:59;;;;;;;57.97;38.70;;;;;;;;;;2090386;28;20670;-61
2021/03/10 00:36:59;;;;;;;60.07;39.40;;;;;;;;;;2090655;28;20192;-59
2021/03/10 00:38:00;;;;;;;55.80;38.70;;;;;;;;;;2090421;28;20287;-61
2021/03/10 00:39:00;;;;;;;62.40;43.17;;;;;;;;;;2098244;28;20168;-60
2021/03/10 00:40:01;;;;;;;59.27;41.17;;;;;;;;;;2090509;28;20177;-59
2021/03/10 00:41:01;;;;;;;63.20;40.00;;;;;;;;;;2098707;28;20251;-60
2021/03/10 00:42:01;;;;;;;62.97;41.40;;;;;;;;;;2092599;28;20272;-59
2021/03/10 00:43:02;;;;;;;77.07;45.37;;;;;;;;;;2081565;28;20187;-61
2021/03/10 00:44:02;;;;;;;64.63;42.83;;;;;;;;;;2082222;28;20657;-61
2021/03/10 00:45:03;;;;;;;62.27;42.77;;;;;;;;;;2091163;28;20159;-61
2021/03/10 00:46:03;;;;;;;63.90;43.10;;;;;;;;;;2089582;28;20204;-59
2021/03/10 00:47:04;;;;;;;64.37;43.50;;;;;;;;;;2076916;28;20166;-61
2021/03/10 00:48:04;;;;;;;64.00;42.97;;;;;;;;;;2090914;28;20287;-61
2021/03/10 00:49:04;;;;;;;68.67;44.43;;;;;;;;;;2090827;28;20200;-59
2021/03/10 00:50:05;;;;;;;62.97;42.80;;;;;;;;;;2081247;28;20213;-57
2021/03/10 00:51:05;;;;;;;66.47;44.30;;;;;;;;;;2073385;28;20169;-59
2021/03/10 00:52:05;;;;;;;73.07;44.67;;;;;;;;;;2072231;28;20169;-60
2021/03/10 00:53:06;;;;;;;67.73;43.77;;;;;;;;;;2073466;28;20267;-58
2021/03/10 00:54:06;;;;;;;72.70;46.43;;;;;;;;;;2082506;28;20168;-61
2021/03/10 00:55:06;;;;;;;69.07;44.73;;;;;;;;;;2073505;28;20223;-60
2021/03/10 00:56:07;;;;;;;65.30;43.93;;;;;;;;;;2073719;28;20239;-61
2021/03/10 00:57:07;;;;;;;69.10;44.13;;;;;;;;;;2082050;28;20164;-60
2021/03/10 00:58:07;;;;;;;64.27;43.97;;;;;;;;;;2082244;28;20212;-58
2021/03/10 00:59:08;;;;;;;68.03;42.87;;;;;;;;;;2082139;28;20223;-58
2021/03/10 01:00:08;;;;;;;70.87;45.00;;;;;;;;;;2082410;28;20636;-58
2021/03/10 01:01:09;;;;;;;68.60;43.13;;;;;;;;;;2073461;28;20181;-59
2021/03/10 01:02:09;;;;;;;70.10;45.90;;;;;;;;;;2073077;28;20161;-59
2021/03/10 01:03:09;;;;;;;65.40;39.97;;;;;;;;;;2082045;28;20203;-59
2021/03/10 01:04:09;;;;;;;65.53;42.67;;;;;;;;;;2082149;28;20234;-59
2021/03/10 01:05:10;;;;;;;67.43;43.20;;;;;;;;;;2082216;28;20169;-58
2021/03/10 01:06:10;;;;;;;68.53;43.47;;;;;;;;;;2082335;28;20251;-56
2021/03/10 01:07:11;;;;;;;67.60;45.07;;;;;;;;;;2081690;28;20640;-57
2021/03/10 01:08:11;;;;;;;71.67;42.13;;;;;;;;;;2082221;28;20672;-58
2021/03/10 01:09:11;;;;;;;68.10;42.93;;;;;;;;;;2082249;28;20192;-60
2021/03/10 01:10:12;;;;;;;65.07;43.40;;;;;;;;;;2082294;28;20259;-59
2021/03/10 01:11:12;;;;;;;67.13;41.80;;;;;;;;;;2082327;28;20641;-60
2021/03/10 01:12:12;;;;;;;62.37;42.30;;;;;;;;;;2073005;28;20165;-57
2021/03/10 01:13:13;;;;;;;63.80;42.00;;;;;;;;;;2073441;28;20317;-58
2021/03/10 01:14:14;;;;;;;66.07;41.80;;;;;;;;;;2082111;28;20180;-59
2021/03/10 01:15:18;;;;;;;64.87;41.33;;;;;;;;;;2082127;28;20232;-59
2021/03/10 01:16:18;;;;;;;58.53;39.07;;;;;;;;;;2082136;28;20488;-59
2021/03/10 01:17:18;;;;;;;57.97;39.93;;;;;;;;;;2081976;28;20176;-59
2021/03/10 01:18:18;;;;;;;55.80;36.77;;;;;;;;;;2073207;28;20193;-59
2021/03/10 01:19:19;;;;;;;58.47;39.73;;;;;;;;;;2073447;28;20227;-56
2021/03/10 01:20:21;;;;;;;63.07;41.33;;;;;;;;;;2082134;28;20260;-57
2021/03/10 01:21:21;;;;;;;59.07;40.40;;;;;;;;;;2072985;28;20539;-57
2021/03/10 01:22:21;;;;;;;63.17;40.20;;;;;;;;;;2072989;28;20170;-56
2021/03/10 01:23:21;;;;;;;63.17;40.40;;;;;;;;;;2073200;28;20649;-59
2021/03/10 01:24:22;;;;;;;58.87;40.17;;;;;;;;;;2073321;28;20191;-59
2021/03/10 01:25:22;;;;;;;57.07;39.67;;;;;;;;;;2073285;28;20177;-58
2021/03/10 01:26:22;;;;;;;58.13;38.87;;;;;;;;;;2073294;28;20780;-59
2021/03/10 01:27:23;;;;;;;59.17;40.47;;;;;;;;;;2081849;28;20191;-59
2021/03/10 01:28:23;;;;;;;63.90;41.03;;;;;;;;;;2081822;28;20207;-59
2021/03/10 01:29:23;;;;;;;60.13;39.93;;;;;;;;;;2081950;28;20636;-59
2021/03/10 01:30:23;;;;;;;57.27;38.37;;;;;;;;;;2081994;28;20184;-58
2021/03/10 01:31:24;;;;;;;61.50;40.27;;;;;;;;;;2081671;28;20275;-59
2021/03/10 01:32:24;;;;;;;59.70;38.77;;;;;;;;;;2081235;28;20218;-56
2021/03/10 01:33:24;;;;;;;54.20;37.37;;;;;;;;;;2081477;28;20286;-58
2021/03/10 01:34:24;;;;;;;60.40;40.83;;;;;;;;;;2080794;28;20168;-60
2021/03/10 01:35:25;;;;;;;56.37;40.03;;;;;;;;;;2064409;28;20166;-58
2021/03/10 01:36:25;;;;;;;59.00;39.63;;;;;;;;;;2064799;28;20188;-57
2021/03/10 01:37:25;;;;;;;63.83;41.37;;;;;;;;;;2072424;28;20329;-59
2021/03/10 01:38:25;;;;;;;59.30;40.07;;;;;;;;;;2073152;28;20173;-59
2021/03/10 01:39:26;;;;;;;63.33;41.23;;;;;;;;;;2082370;28;20230;-59
2021/03/10 01:40:26;;;;;;;62.17;42.83;;;;;;;;;;2078375;28;20168;-60
2021/03/10 01:41:26;;;;;;;69.70;43.27;;;;;;;;;;2078287;28;20203;-57
2021/03/10 01:42:26;;;;;;;69.30;43.87;;;;;;;;;;2087675;28;20199;-58
2021/03/10 01:43:26;;;;;;;65.37;44.43;;;;;;;;;;2078349;28;20184;-58
2021/03/10 01:44:27;;;;;;;64.93;43.07;;;;;;;;;;2073481;28;20185;-57
2021/03/10 01:45:27;;;;;;;65.27;42.47;;;;;;;;;;2080888;28;20160;-55
2021/03/10 01:46:33;;;;;;;68.30;43.63;;;;;;;;;;2081970;28;20236;-57
2021/03/10 01:47:33;;;;;;;61.87;41.53;;;;;;;;;;2081700;28;20529;-58
2021/03/10 01:48:34;;;;;;;62.00;41.23;;;;;;;;;;2081869;28;20193;-59
2021/03/10 01:49:35;;;;;;;64.07;41.90;;;;;;;;;;2081693;28;20551;-60
2021/03/10 01:50:35;;;;;;;66.27;44.00;;;;;;;;;;2073048;28;20185;-58
2021/03/10 01:51:36;;;;;;;67.20;43.00;;;;;;;;;;2072244;28;20570;-59
2021/03/10 01:52:36;;;;;;;59.57;40.97;;;;;;;;;;2073051;28;20205;-58
2021/03/10 01:53:37;;;;;;;63.10;41.40;;;;;;;;;;2073113;28;20215;-59
2021/03/10 01:54:37;;;;;;;60.30;40.00;;;;;;;;;;2073095;28;20169;-57
2021/03/10 01:55:37;;;;;;;61.40;40.80;;;;;;;;;;2072862;28;20184;-59
2021/03/10 01:56:39;;;;;;;61.53;41.17;;;;;;;;;;2073072;28;20188;-56
2021/03/10 01:57:39;;;;;;;60.73;39.37;;;;;;;;;;2072544;28;20180;-54
2021/03/10 01:58:40;;;;;;;62.80;41.93;;;;;;;;;;2082062;28;20674;-55
2021/03/10 01:59:41;;;;;;;67.30;41.93;;;;;;;;;;2072991;28;20594;-57
2021/03/10 02:00:41;;;;;;;66.57;42.43;;;;;;;;;;2073207;28;20192;-59
2021/03/10 02:01:42;;;;;;;62.50;42.23;;;;;;;;;;2080855;28;20200;-59
2021/03/10 02:02:42;;;;;;;68.00;41.83;;;;;;;;;;2082016;28;20703;-59
2021/03/10 02:03:43;;;;;;;68.70;44.40;;;;;;;;;;2073027;28;20185;-61
2021/03/10 02:04:43;;;;;;;66.07;43.47;;;;;;;;;;2073948;28;20180;-61
2021/03/10 02:05:43;;;;;;;63.00;41.77;;;;;;;;;;2093806;28;20199;-61
2021/03/10 02:07:03;;;;;;;63.70;42.43;;;;;;;;;;2088413;28;20184;-60
2021/03/10 02:08:04;;;;;;;62.27;40.73;;;;;;;;;;2081170;28;20214;-61
2021/03/10 02:09:06;;;;;;;62.87;41.47;;;;;;;;;;2081426;28;20172;-58
2021/03/10 02:10:18;;;;;;;63.33;42.60;;;;;;;;;;2088961;28;20180;-60
2021/03/10 02:11:40;;;;;;;70.63;43.53;;;;;;;;;;2089279;28;20195;-60
2021/03/10 02:12:44;;;;;;;65.40;41.07;;;;;;;;;;2074110;28;20216;-55
2021/03/10 02:13:50;;;;;;;62.83;40.83;;;;;;;;;;2074011;28;20240;-59
2021/03/10 02:14:59;;;;;;;61.67;42.13;;;;;;;;;;2088890;28;20628;-60
2021/03/10 02:16:05;;;;;;;62.47;41.17;;;;;;;;;;2079738;28;20595;-59
2021/03/10 02:17:11;;;;;;;61.57;40.80;;;;;;;;;;2086536;28;20164;-59
2021/03/10 02:18:14;;;;;;;61.40;41.80;;;;;;;;;;2081384;28;20284;-59
2021/03/10 02:19:17;;;;;;;66.40;42.17;;;;;;;;;;2082608;28;20557;-56
2021/03/10 02:20:27;;;;;;;61.87;41.67;;;;;;;;;;2082961;28;20176;-62
2021/03/10 02:21:46;;;;;;;62.87;42.00;;;;;;;;;;2082625;28;20264;-57
2021/03/10 02:22:59;;;;;;;63.03;41.23;;;;;;;;;;2082604;28;20214;-58
2021/03/10 02:24:20;;;;;;;61.20;41.40;;;;;;;;;;2079998;28;20633;-59
2021/03/10 02:25:32;;;;;;;61.40;40.43;;;;;;;;;;2074839;28;20177;-59
2021/03/10 02:26:40;;;;;;;59.77;39.57;;;;;;;;;;2082966;28;20496;-59
2021/03/10 02:27:42;;;;;;;63.40;41.67;;;;;;;;;;2076426;28;20172;-58
2021/03/10 02:28:44;;;;;;;65.87;41.57;;;;;;;;;;2079614;28;20688;-58
2021/03/10 02:29:44;;;;;;;58.97;40.07;;;;;;;;;;2088359;28;20197;-60
2021/03/10 02:30:46;;;;;;;63.07;40.27;;;;;;;;;;2083644;28;20170;-59
2021/03/10 02:31:48;;;;;;;58.83;39.80;;;;;;;;;;2071960;28;20246;-59
2021/03/10 02:32:55;;;;;;;58.80;40.30;;;;;;;;;;2069120;28;20170;-58
2021/03/10 02:33:56;;;;;;;60.73;39.83;;;;;;;;;;2089878;28;20729;-61
2021/03/10 02:34:56;;;;;;;56.83;38.60;;;;;;;;;;2083259;28;20234;-57
2021/03/10 02:36:01;;;;;;;61.43;41.37;;;;;;;;;;2089037;28;20179;-56
2021/03/10 02:37:02;;;;;;;60.03;40.37;;;;;;;;;;2072883;28;20792;-59
2021/03/10 02:38:03;;;;;;;59.17;38.53;;;;;;;;;;2073599;28;20189;-57
2021/03/10 02:39:05;;;;;;;57.13;39.63;;;;;;;;;;2072142;28;20189;-59
2021/03/10 02:40:07;;;;;;;59.07;39.97;;;;;;;;;;2071882;28;20261;-58
2021/03/10 02:41:07;;;;;;;63.43;42.03;;;;;;;;;;2079710;28;20635;-56
2021/03/10 02:42:08;;;;;;;65.77;42.10;;;;;;;;;;2091160;28;20179;-60
2021/03/10 02:43:08;;;;;;;62.07;41.10;;;;;;;;;;2077967;28;20208;-59
2021/03/10 02:44:10;;;;;;;60.03;40.80;;;;;;;;;;2074703;28;20181;-61
2021/03/10 02:45:11;;;;;;;61.40;41.23;;;;;;;;;;2084160;28;20179;-58
2021/03/10 02:46:12;;;;;;;61.47;40.47;;;;;;;;;;2081842;28;20187;-59
2021/03/10 02:47:13;;;;;;;57.87;40.50;;;;;;;;;;2072971;28;20179;-58
2021/03/10 02:48:14;;;;;;;57.07;39.70;;;;;;;;;;2082799;28;20196;-57
2021/03/10 02:49:15;;;;;;;58.67;40.80;;;;;;;;;;2074550;28;20663;-59
2021/03/10 02:50:16;;;;;;;63.20;41.80;;;;;;;;;;2071941;28;20169;-56
2021/03/10 02:51:16;;;;;;;60.00;41.43;;;;;;;;;;2081842;28;20180;-56
2021/03/10 02:52:17;;;;;;;56.97;41.60;;;;;;;;;;2079679;28;20188;-56
2021/03/10 02:53:17;;;;;;;65.10;42.10;;;;;;;;;;2088464;28;20229;-59
2021/03/10 02:54:18;;;;;;;63.13;44.13;;;;;;;;;;2084988;28;20206;-59
2021/03/10 02:55:19;;;;;;;64.10;44.23;;;;;;;;;;2089123;28;20184;-56
2021/03/10 02:56:19;;;;;;;65.73;44.27;;;;;;;;;;2079052;28;20184;-58
2021/03/10 02:57:20;;;;;;;66.57;43.07;;;;;;;;;;2074400;28;20300;-59
2021/03/10 02:58:20;;;;;;;66.57;43.27;;;;;;;;;;2082780;28;20215;-56
2021/03/10 02:59:20;;;;;;;67.73;43.63;;;;;;;;;;2085854;28;20199;-56
2021/03/10 03:00:21;;;;;;;66.53;42.83;;;;;;;;;;2091132;28;20167;-57
2021/03/10 03:01:22;;;;;;;64.60;42.63;;;;;;;;;;2075098;28;20184;-56
2021/03/10 03:02:22;;;;;;;60.50;41.17;;;;;;;;;;2071165;28;20170;-58
2021/03/10 03:03:22;;;;;;;65.97;44.83;;;;;;;;;;2078374;28;20164;-59
2021/03/10 03:04:22;;;;;;;64.37;43.10;;;;;;;;;;2084114;28;20184;-56
2021/03/10 03:05:23;;;;;;;67.43;43.60;;;;;;;;;;2088385;28;20207;-57
2021/03/10 03:06:23;;;;;;;66.17;42.57;;;;;;;;;;2089770;28;20176;-58
2021/03/10 03:07:23;;;;;;;64.83;43.00;;;;;;;;;;2088306;28;20267;-59
2021/03/10 03:08:24;;;;;;;63.53;43.20;;;;;;;;;;2090250;28;20250;-60
2021/03/10 03:09:24;;;;;;;68.83;44.37;;;;;;;;;;2087922;28;20244;-57
2021/03/10 03:10:26;;;;;;;66.93;42.73;;;;;;;;;;2088739;28;20186;-57
2021/03/10 03:11:28;;;;;;;66.43;43.53;;;;;;;;;;2074264;28;20184;-56
2021/03/10 03:12:28;;;;;;;66.37;43.50;;;;;;;;;;2074436;28;20280;-54
2021/03/10 03:13:30;;;;;;;61.10;42.80;;;;;;;;;;2086394;28;20202;-56
2021/03/10 03:14:32;;;;;;;63.90;42.57;;;;;;;;;;2086728;28;20183;-57
2021/03/10 03:15:33;;;;;;;62.30;40.77;;;;;;;;;;2086355;28;20176;-55
2021/03/10 03:16:34;;;;;;;64.80;43.47;;;;;;;;;;2087428;28;20217;-61
2021/03/10 03:17:34;;;;;;;65.13;43.53;;;;;;;;;;2074844;28;20192;-58
2021/03/10 03:18:34;;;;;;;64.70;42.30;;;;;;;;;;2073233;28;20249;-56
2021/03/10 03:19:35;;;;;;;66.37;43.87;;;;;;;;;;2073668;28;20169;-57
2021/03/10 03:20:35;;;;;;;65.37;43.83;;;;;;;;;;2073895;28;20180;-56
2021/03/10 03:21:35;;;;;;;65.37;44.50;;;;;;;;;;2081646;28;20180;-56
2021/03/10 03:22:41;;;;;;;63.03;43.67;;;;;;;;;;2081684;28;20251;-58
2021/03/10 03:23:42;;;;;;;66.43;42.87;;;;;;;;;;2071859;28;20708;-54
2021/03/10 03:24:43;;;;;;;62.53;44.10;;;;;;;;;;2073273;28;20227;-57
2021/03/10 03:25:44;;;;;;;67.57;44.83;;;;;;;;;;2087847;28;20259;-57
2021/03/10 03:26:45;;;;;;;66.57;43.73;;;;;;;;;;2083969;28;20199;-60
2021/03/10 03:27:48;;;;;;;66.87;45.23;;;;;;;;;;2077919;28;20212;-59
2021/03/10 03:28:48;;;;;;;68.07;44.43;;;;;;;;;;2073721;28;20197;-62
2021/03/10 03:29:49;;;;;;;73.57;46.93;;;;;;;;;;2074579;28;20177;-60
2021/03/10 03:30:49;;;;;;;72.97;46.40;;;;;;;;;;2089859;28;20184;-58
2021/03/10 03:31:50;;;;;;;69.83;45.60;;;;;;;;;;2083757;28;20180;-59
2021/03/10 03:32:52;;;;;;;70.97;45.10;;;;;;;;;;2084154;28;20208;-58
2021/03/10 03:33:53;;;;;;;68.57;45.03;;;;;;;;;;2083522;28;20184;-58
2021/03/10 03:34:57;;;;;;;71.77;45.53;;;;;;;;;;2092257;28;20231;-58
2021/03/10 03:35:58;;;;;;;73.07;46.20;;;;;;;;;;2086340;28;20772;-57
2021/03/10 03:36:58;;;;;;;70.20;45.53;;;;;;;;;;2094620;28;20234;-58
2021/03/10 03:37:59;;;;;;;71.33;45.50;;;;;;;;;;2083806;28;20231;-58
2021/03/10 03:39:00;;;;;;;72.93;45.93;;;;;;;;;;2080861;28;20259;-56
2021/03/10 03:40:01;;;;;;;76.23;46.37;;;;;;;;;;2082375;28;20602;-57
2021/03/10 03:41:01;;;;;;;66.23;45.33;;;;;;;;;;2089579;28;20184;-55
2021/03/10 03:42:01;;;;;;;76.37;47.13;;;;;;;;;;2081844;28;20641;-57
2021/03/10 03:43:02;;;;;;;71.30;46.07;;;;;;;;;;2081608;28;20185;-58
2021/03/10 03:44:03;;;;;;;68.37;46.07;;;;;;;;;;2081814;28;20187;-58
2021/03/10 03:45:04;;;;;;;73.20;45.63;;;;;;;;;;2082638;28;20208;-57
2021/03/10 03:46:05;;;;;;;71.07;45.10;;;;;;;;;;2082195;28;20200;-59
2021/03/10 03:47:05;;;;;;;73.90;47.23;;;;;;;;;;2080178;28;20192;-58
2021/03/10 03:48:06;;;;;;;74.37;44.90;;;;;;;;;;2079012;28;20192;-56
2021/03/10 03:49:06;;;;;;;68.90;46.90;;;;;;;;;;2071339;28;20215;-55
2021/03/10 03:50:08;;;;;;;73.17;46.63;;;;;;;;;;2081679;28;20168;-58
2021/03/10 03:51:22;;;;;;;78.23;46.93;;;;;;;;;;2076492;28;20185;-59
2021/03/10 03:52:22;;;;;;;72.17;45.00;;;;;;;;;;2073565;28;20268;-58
2021/03/10 03:53:22;;;;;;;73.00;45.47;;;;;;;;;;2081817;28;20199;-58
2021/03/10 03:54:22;;;;;;;69.97;46.37;;;;;;;;;;2076723;28;20205;-59
2021/03/10 03:55:23;;;;;;;77.73;48.50;;;;;;;;;;2071576;28;20303;-58
2021/03/10 03:56:23;;;;;;;73.60;46.70;;;;;;;;;;2083858;28;20175;-60
2021/03/10 03:57:24;;;;;;;75.37;46.20;;;;;;;;;;2083787;28;20242;-59
2021/03/10 03:58:24;;;;;;;68.70;45.27;;;;;;;;;;2108559;22;20214;-55
2021/03/10 03:59:24;;;;;;;74.27;46.90;;;;;;;;;;2095482;28;20233;-52
2021/03/10 04:00:26;;;;;;;73.47;46.03;;;;;;;;;;2097495;28;20245;-51
2021/03/10 04:01:26;;;;;;;72.50;45.93;;;;;;;;;;2094874;28;20232;-56
2021/03/10 04:02:26;;;;;;;75.20;46.10;;;;;;;;;;2079691;28;20309;-53
2021/03/10 04:03:26;;;;;;;73.93;46.13;;;;;;;;;;2084150;28;20215;-53
2021/03/10 04:04:27;;;;;;;67.70;44.60;;;;;;;;;;2100154;28;20296;-53
2021/03/10 04:05:27;;;;;;;75.80;46.47;;;;;;;;;;2101307;28;20174;-51
2021/03/10 04:06:27;;;;;;;73.77;47.00;;;;;;;;;;2100738;28;20179;-56
2021/03/10 04:07:27;;;;;;;66.13;44.30;;;;;;;;;;2093967;28;20225;-55
2021/03/10 04:08:27;;;;;;;72.67;45.90;;;;;;;;;;2094079;28;20260;-54
2021/03/10 04:09:28;;;;;;;64.23;44.53;;;;;;;;;;2089714;28;20172;-53
2021/03/10 04:10:29;;;;;;;72.10;47.00;;;;;;;;;;2085638;28;20259;-57
2021/03/10 04:11:30;;;;;;;68.43;44.87;;;;;;;;;;2088250;28;20172;-58
2021/03/10 04:12:30;;;;;;;72.80;47.00;;;;;;;;;;2090830;28;20536;-55
2021/03/10 04:13:30;;;;;;;70.53;47.13;;;;;;;;;;2094779;28;20214;-55
2021/03/10 04:14:30;;;;;;;69.20;45.57;;;;;;;;;;2086130;28;20216;-58
2021/03/10 04:15:31;;;;;;;70.13;44.93;;;;;;;;;;2083905;28;20644;-57
2021/03/10 04:16:32;;;;;;;69.93;44.47;;;;;;;;;;2095951;28;20178;-56
2021/03/10 04:17:32;;;;;;;65.83;43.23;;;;;;;;;;2078826;28;20557;-55
2021/03/10 04:18:33;;;;;;;70.67;46.07;;;;;;;;;;2076625;28;20276;-52
2021/03/10 04:19:33;;;;;;;64.43;42.47;;;;;;;;;;2090924;28;20636;-56
2021/03/10 04:20:33;;;;;;;66.67;43.70;;;;;;;;;;2095301;28;20173;-58
2021/03/10 04:21:33;;;;;;;64.00;42.67;;;;;;;;;;2091649;28;20190;-50
2021/03/10 04:22:34;;;;;;;69.50;45.23;;;;;;;;;;2093397;28;20635;-51
2021/03/10 04:23:34;;;;;;;65.87;43.97;;;;;;;;;;2095164;28;20799;-51
2021/03/10 04:24:35;;;;;;;65.73;41.93;;;;;;;;;;2093767;28;20190;-53
2021/03/10 04:25:35;;;;;;;68.37;46.23;;;;;;;;;;2085498;28;20192;-55
2021/03/10 04:26:35;;;;;;;65.50;45.27;;;;;;;;;;2082984;28;20633;-53
2021/03/10 04:27:35;;;;;;;63.33;43.03;;;;;;;;;;2093039;28;20195;-52
2021/03/10 04:28:36;;;;;;;60.73;40.43;;;;;;;;;;2092891;28;20203;-57
2021/03/10 04:29:36;;;;;;;64.77;43.70;;;;;;;;;;2095778;28;20186;-56
2021/03/10 04:30:36;;;;;;;62.17;43.67;;;;;;;;;;2090484;28;20172;-52
2021/03/10 04:31:36;;;;;;;64.50;42.07;;;;;;;;;;2091713;28;20178;-54
2021/03/10 04:32:37;;;;;;;60.97;42.43;;;;;;;;;;2092135;28;20655;-54
2021/03/10 04:33:37;;;;;;;68.10;45.07;;;;;;;;;;2091031;28;20687;-55
2021/03/10 04:34:37;;;;;;;64.47;43.83;;;;;;;;;;2088565;28;20176;-55
2021/03/10 04:35:37;;;;;;;63.77;43.23;;;;;;;;;;2089069;28;20725;-54
2021/03/10 04:36:38;;;;;;;70.97;43.93;;;;;;;;;;2091241;28;20190;-53
2021/03/10 04:37:40;;;;;;;64.87;43.23;;;;;;;;;;2091321;28;20176;-55
2021/03/10 04:38:40;;;;;;;69.27;44.63;;;;;;;;;;2089918;28;20643;-55
2021/03/10 04:39:40;;;;;;;67.07;43.63;;;;;;;;;;2096064;28;20183;-55
2021/03/10 04:40:41;;;;;;;61.47;42.30;;;;;;;;;;2092056;28;20190;-56
2021/03/10 04:41:41;;;;;;;69.40;45.87;;;;;;;;;;2095131;28;20182;-52
2021/03/10 04:42:41;;;;;;;62.87;40.47;;;;;;;;;;2087908;28;20338;-53
2021/03/10 04:43:41;;;;;;;68.90;44.47;;;;;;;;;;2095434;28;20547;-53
2021/03/10 04:44:42;;;;;;;63.43;42.20;;;;;;;;;;2096186;28;20198;-53
2021/03/10 04:45:42;;;;;;;67.60;43.50;;;;;;;;;;2091572;28;20213;-52
2021/03/10 04:46:42;;;;;;;64.37;42.60;;;;;;;;;;2085368;28;20184;-57
2021/03/10 04:47:43;;;;;;;66.50;43.17;;;;;;;;;;2087279;28;20270;-56
2021/03/10 04:48:43;;;;;;;66.87;42.00;;;;;;;;;;2092292;28;20272;-51
2021/03/10 04:49:44;;;;;;;60.67;41.23;;;;;;;;;;2095856;28;20576;-55
2021/03/10 04:50:44;;;;;;;61.47;39.97;;;;;;;;;;2096652;28;20186;-57
2021/03/10 04:51:44;;;;;;;57.27;40.60;;;;;;;;;;2090553;28;20180;-53
2021/03/10 04:52:44;;;;;;;59.53;40.00;;;;;;;;;;2094883;28;20257;-58
2021/03/10 04:53:45;;;;;;;55.83;39.80;;;;;;;;;;2091069;28;20302;-56
2021/03/10 04:54:45;;;;;;;58.53;39.33;;;;;;;;;;2096101;28;20167;-56
2021/03/10 04:55:45;;;;;;;60.87;39.60;;;;;;;;;;2090498;28;20310;-55
2021/03/10 04:56:45;;;;;;;55.70;39.93;;;;;;;;;;2093710;28;20187;-55
2021/03/10 04:57:45;;;;;;;58.07;39.37;;;;;;;;;;2093696;28;20201;-55
2021/03/10 04:58:46;;;;;;;56.70;40.33;;;;;;;;;;2090294;28;20215;-55
2021/03/10 04:59:46;;;;;;;59.87;39.97;;;;;;;;;;2080419;28;20180;-54
2021/03/10 05:00:46;;;;;;;61.33;40.23;;;;;;;;;;2073546;28;20160;-57
2021/03/10 05:01:47;;;;;;;54.43;39.07;;;;;;;;;;2074754;28;20169;-55
2021/03/10 05:02:47;;;;;;;57.43;39.13;;;;;;;;;;2075011;28;20550;-56
2021/03/10 05:03:47;;;;;;;59.73;40.17;;;;;;;;;;2074454;28;20189;-55
2021/03/10 05:04:47;;;;;;;55.23;38.43;;;;;;;;;;2081691;28;20191;-57
2021/03/10 05:05:48;;;;;;;57.90;39.93;;;;;;;;;;2091301;28;20171;-55
2021/03/10 05:06:48;;;;;;;61.30;40.07;;;;;;;;;;2094739;28;20651;-54
2021/03/10 05:07:48;;;;;;;59.57;39.90;;;;;;;;;;2087603;28;20171;-52
2021/03/10 05:08:48;;;;;;;64.13;41.20;;;;;;;;;;2081458;28;20207;-53
2021/03/10 05:09:49;;;;;;;59.67;39.03;;;;;;;;;;2096685;28;20193;-54
2021/03/10 05:10:49;;;;;;;61.47;40.97;;;;;;;;;;2090532;28;20172;-53
2021/03/10 05:11:49;;;;;;;62.63;41.33;;;;;;;;;;2090101;28;20188;-53
2021/03/10 05:12:49;;;;;;;58.70;40.70;;;;;;;;;;2093525;28;20183;-55
2021/03/10 05:13:50;;;;;;;60.60;41.13;;;;;;;;;;2096732;28;20198;-52
2021/03/10 05:14:50;;;;;;;59.60;39.80;;;;;;;;;;2090708;28;20552;-55
2021/03/10 05:15:50;;;;;;;60.53;40.93;;;;;;;;;;2092361;28;20175;-57
2021/03/10 05:16:51;;;;;;;64.23;41.37;;;;;;;;;;2092022;28;20176;-52
2021/03/10 05:17:51;;;;;;;58.43;41.33;;;;;;;;;;2096710;28;20217;-53
2021/03/10 05:18:52;;;;;;;57.50;40.10;;;;;;;;;;2090350;28;20226;-55
2021/03/10 05:19:52;;;;;;;58.63;39.27;;;;;;;;;;2096864;28;20177;-52
2021/03/10 05:20:53;;;;;;;58.70;38.23;;;;;;;;;;2081437;28;20664;-53
2021/03/10 05:21:54;;;;;;;60.67;39.60;;;;;;;;;;2077388;28;20686;-54
2021/03/10 05:22:55;;;;;;;60.77;40.33;;;;;;;;;;2081029;28;20212;-56
2021/03/10 05:23:55;;;;;;;59.50;39.47;;;;;;;;;;2096963;28;20232;-56
2021/03/10 05:24:55;;;;;;;60.43;39.73;;;;;;;;;;2080665;28;20188;-54
2021/03/10 05:25:55;;;;;;;60.00;38.93;;;;;;;;;;2088668;28;20190;-54
2021/03/10 05:26:56;;;;;;;54.57;37.07;;;;;;;;;;2091946;28;20176;-52
2021/03/10 05:27:56;;;;;;;57.40;38.17;;;;;;;;;;2096799;28;20183;-56
2021/03/10 05:28:56;;;;;;;54.13;37.57;;;;;;;;;;2088986;28;20240;-55
2021/03/10 05:30:00;;;;;;;57.30;38.00;;;;;;;;;;2092559;28;20221;-53
2021/03/10 05:31:00;;;;;;;54.27;37.73;;;;;;;;;;2089188;28;20640;-51
2021/03/10 05:32:00;;;;;;;56.90;37.73;;;;;;;;;;2094305;28;20172;-55
2021/03/10 05:33:00;;;;;;;56.43;39.03;;;;;;;;;;2098272;28;20545;-51
2021/03/10 05:34:01;;;;;;;57.13;38.63;;;;;;;;;;2091347;28;20191;-53
2021/03/10 05:35:01;;;;;;;59.23;39.60;;;;;;;;;;2086336;28;20179;-50
2021/03/10 05:36:02;;;;;;;57.87;38.20;;;;;;;;;;2082464;28;20177;-52
2021/03/10 05:37:03;;;;;;;56.87;39.47;;;;;;;;;;2090327;28;20172;-50
2021/03/10 05:38:03;;;;;;;60.57;39.77;;;;;;;;;;2090108;28;20546;-52
2021/03/10 05:39:04;;;;;;;60.87;39.13;;;;;;;;;;2092416;28;20644;-54
2021/03/10 05:40:04;;;;;;;59.40;40.07;;;;;;;;;;2091266;28;20195;-54
2021/03/10 05:41:05;;;;;;;57.97;39.33;;;;;;;;;;2096677;28;20178;-54
2021/03/10 05:42:05;;;;;;;52.27;36.87;;;;;;;;;;2081106;28;20165;-52
2021/03/10 05:43:05;;;;;;;52.70;36.93;;;;;;;;;;2081088;28;20242;-56
2021/03/10 05:44:06;;;;;;;55.43;36.90;;;;;;;;;;2094270;28;20229;-56
2021/03/10 05:45:07;;;;;;;50.60;37.77;;;;;;;;;;2095667;28;20171;-56
2021/03/10 05:46:08;;;;;;;56.17;37.83;;;;;;;;;;2091019;28;20688;-55
2021/03/10 05:47:08;;;;;;;57.87;37.23;;;;;;;;;;2089186;28;20164;-52
2021/03/10 05:48:11;;;;;;;52.33;35.73;;;;;;;;;;2090473;28;20207;-52
2021/03/10 05:49:11;;;;;;;56.87;38.07;;;;;;;;;;2093841;28;20229;-53
2021/03/10 05:50:15;;;;;;;54.30;36.87;;;;;;;;;;2094723;28;20171;-51
2021/03/10 05:51:17;;;;;;;58.10;36.67;;;;;;;;;;2091304;28;20164;-53
2021/03/10 05:52:17;;;;;;;54.53;37.47;;;;;;;;;;2094993;28;20517;-57
2021/03/10 05:53:22;;;;;;;51.57;36.60;;;;;;;;;;2083178;28;20620;-60
2021/03/10 05:54:25;;;;;;;52.20;36.73;;;;;;;;;;2084517;28;20172;-59
2021/03/10 05:55:26;;;;;;;50.23;35.40;;;;;;;;;;2093968;28;20172;-57